sensor_id;sensor_type;location;lat;lon;timestamp;P1;durP1;ratioP1;P2;durP2;ratioP2
5199;SDS011;2619;47.868;11.892;2023-07-31T00:01:59;5.43;;;3.10;;
5199;SDS011;2619;47.868;11.892;2023-07-31T00:04:25;5.23;;;3.20;;
5199;SDS011;2619;47.868;11.892;2023-07-31T00:06:50;6.97;;;3.50;;
5199;SDS011;2619;47.868;11.892;2023-07-31T00:09:16;4.97;;;3.33;;
5199;SDS011;2619;47.868;11.892;2023-07-31T00:11:41;5.93;;;3.33;;
5199;SDS011;2619;47.868;11.892;2023-07-31T00:14:07;5.97;;;3.87;;
5199;SDS011;2619;47.868;11.892;2023-07-31T00:16:32;4.07;;;3.63;;
5199;SDS011;2619;47.868;11.892;2023-07-31T00:18:58;7.07;;;3.70;;
5199;SDS011;2619;47.868;11.892;2023-07-31T00:21:23;5.73;;;3.40;;
5199;SDS011;2619;47.868;11.892;2023-07-31T00:23:49;4.80;;;3.07;;
5199;SDS011;2619;47.868;11.892;2023-07-31T00:26:15;6.30;;;3.27;;
5199;SDS011;2619;47.868;11.892;2023-07-31T00:28:41;6.10;;;3.73;;
5199;SDS011;2619;47.868;11.892;2023-07-31T00:31:06;5.20;;;3.30;;
5199;SDS011;2619;47.868;11.892;2023-07-31T00:33:34;5.20;;;3.47;;
5199;SDS011;2619;47.868;11.892;2023-07-31T00:36:00;6.03;;;3.87;;
5199;SDS011;2619;47.868;11.892;2023-07-31T00:38:26;5.00;;;3.07;;
5199;SDS011;2619;47.868;11.892;2023-07-31T00:40:51;5.93;;;3.63;;
5199;SDS011;2619;47.868;11.892;2023-07-31T00:43:17;4.83;;;3.63;;
5199;SDS011;2619;47.868;11.892;2023-07-31T00:45:42;7.57;;;3.23;;
5199;SDS011;2619;47.868;11.892;2023-07-31T00:48:08;4.77;;;3.33;;
5199;SDS011;2619;47.868;11.892;2023-07-31T00:50:34;7.30;;;4.03;;
5199;SDS011;2619;47.868;11.892;2023-07-31T00:53:01;4.37;;;3.40;;
5199;SDS011;2619;47.868;11.892;2023-07-31T00:55:26;5.87;;;3.47;;
5199;SDS011;2619;47.868;11.892;2023-07-31T00:57:52;8.87;;;3.67;;
5199;SDS011;2619;47.868;11.892;2023-07-31T01:00:20;6.27;;;3.37;;
5199;SDS011;2619;47.868;11.892;2023-07-31T01:02:46;6.77;;;4.17;;
5199;SDS011;2619;47.868;11.892;2023-07-31T01:05:13;6.53;;;3.80;;
5199;SDS011;2619;47.868;11.892;2023-07-31T01:07:45;9.27;;;4.23;;
5199;SDS011;2619;47.868;11.892;2023-07-31T01:10:23;6.93;;;3.80;;
5199;SDS011;2619;47.868;11.892;2023-07-31T01:12:55;5.47;;;3.47;;
5199;SDS011;2619;47.868;11.892;2023-07-31T01:15:22;5.90;;;3.87;;
5199;SDS011;2619;47.868;11.892;2023-07-31T01:17:48;6.07;;;4.10;;
5199;SDS011;2619;47.868;11.892;2023-07-31T01:20:18;6.33;;;4.03;;
5199;SDS011;2619;47.868;11.892;2023-07-31T01:27:59;10.37;;;4.73;;
5199;SDS011;2619;47.868;11.892;2023-07-31T01:30:29;4.83;;;3.77;;
5199;SDS011;2619;47.868;11.892;2023-07-31T01:33:02;9.10;;;4.10;;
5199;SDS011;2619;47.868;11.892;2023-07-31T01:35:33;8.13;;;4.40;;
5199;SDS011;2619;47.868;11.892;2023-07-31T01:37:59;6.13;;;4.30;;
5199;SDS011;2619;47.868;11.892;2023-07-31T01:40:25;7.00;;;3.73;;
5199;SDS011;2619;47.868;11.892;2023-07-31T01:42:50;6.97;;;3.97;;
5199;SDS011;2619;47.868;11.892;2023-07-31T01:45:16;6.50;;;3.83;;
5199;SDS011;2619;47.868;11.892;2023-07-31T01:47:42;6.40;;;3.60;;
5199;SDS011;2619;47.868;11.892;2023-07-31T01:50:07;11.10;;;4.50;;
5199;SDS011;2619;47.868;11.892;2023-07-31T01:52:33;6.10;;;4.43;;
5199;SDS011;2619;47.868;11.892;2023-07-31T01:54:59;5.47;;;4.70;;
5199;SDS011;2619;47.868;11.892;2023-07-31T01:57:24;5.73;;;3.80;;
5199;SDS011;2619;47.868;11.892;2023-07-31T01:59:50;5.77;;;3.80;;
5199;SDS011;2619;47.868;11.892;2023-07-31T02:02:18;8.03;;;4.07;;
5199;SDS011;2619;47.868;11.892;2023-07-31T02:04:44;8.33;;;4.50;;
5199;SDS011;2619;47.868;11.892;2023-07-31T02:07:09;7.80;;;4.27;;
5199;SDS011;2619;47.868;11.892;2023-07-31T02:09:35;7.17;;;5.10;;
5199;SDS011;2619;47.868;11.892;2023-07-31T02:12:00;5.30;;;4.37;;
5199;SDS011;2619;47.868;11.892;2023-07-31T02:14:26;5.10;;;4.30;;
5199;SDS011;2619;47.868;11.892;2023-07-31T02:16:51;6.60;;;3.87;;
5199;SDS011;2619;47.868;11.892;2023-07-31T02:19:17;5.67;;;3.83;;
5199;SDS011;2619;47.868;11.892;2023-07-31T02:21:43;6.47;;;3.80;;
5199;SDS011;2619;47.868;11.892;2023-07-31T02:24:08;5.90;;;3.73;;
5199;SDS011;2619;47.868;11.892;2023-07-31T02:26:34;6.40;;;3.67;;
5199;SDS011;2619;47.868;11.892;2023-07-31T02:28:59;5.23;;;3.40;;
5199;SDS011;2619;47.868;11.892;2023-07-31T02:31:25;5.30;;;3.47;;
5199;SDS011;2619;47.868;11.892;2023-07-31T02:33:50;6.93;;;3.80;;
5199;SDS011;2619;47.868;11.892;2023-07-31T02:36:16;11.47;;;3.90;;
5199;SDS011;2619;47.868;11.892;2023-07-31T02:38:42;7.17;;;4.07;;
5199;SDS011;2619;47.868;11.892;2023-07-31T02:41:07;5.10;;;3.37;;
5199;SDS011;2619;47.868;11.892;2023-07-31T02:43:33;4.63;;;3.37;;
5199;SDS011;2619;47.868;11.892;2023-07-31T02:45:59;4.90;;;3.07;;
5199;SDS011;2619;47.868;11.892;2023-07-31T02:48:24;5.23;;;3.50;;
5199;SDS011;2619;47.868;11.892;2023-07-31T02:50:50;5.03;;;3.53;;
5199;SDS011;2619;47.868;11.892;2023-07-31T02:53:16;7.07;;;3.80;;
5199;SDS011;2619;47.868;11.892;2023-07-31T02:55:41;4.50;;;3.40;;
5199;SDS011;2619;47.868;11.892;2023-07-31T02:58:07;5.30;;;4.30;;
5199;SDS011;2619;47.868;11.892;2023-07-31T03:00:32;5.30;;;4.47;;
5199;SDS011;2619;47.868;11.892;2023-07-31T03:02:58;6.50;;;3.93;;
5199;SDS011;2619;47.868;11.892;2023-07-31T03:05:23;5.30;;;3.60;;
5199;SDS011;2619;47.868;11.892;2023-07-31T03:07:49;7.00;;;3.97;;
5199;SDS011;2619;47.868;11.892;2023-07-31T03:10:14;7.90;;;4.20;;
5199;SDS011;2619;47.868;11.892;2023-07-31T03:12:40;9.83;;;3.90;;
5199;SDS011;2619;47.868;11.892;2023-07-31T03:15:06;3.80;;;3.27;;
5199;SDS011;2619;47.868;11.892;2023-07-31T03:17:32;5.40;;;3.27;;
5199;SDS011;2619;47.868;11.892;2023-07-31T03:19:58;4.97;;;3.53;;
5199;SDS011;2619;47.868;11.892;2023-07-31T03:22:23;5.00;;;3.27;;
5199;SDS011;2619;47.868;11.892;2023-07-31T03:24:49;7.20;;;3.63;;
5199;SDS011;2619;47.868;11.892;2023-07-31T03:27:14;5.40;;;3.10;;
5199;SDS011;2619;47.868;11.892;2023-07-31T03:29:40;4.97;;;3.27;;
5199;SDS011;2619;47.868;11.892;2023-07-31T03:32:05;5.37;;;3.47;;
5199;SDS011;2619;47.868;11.892;2023-07-31T03:34:31;5.37;;;3.20;;
5199;SDS011;2619;47.868;11.892;2023-07-31T03:36:57;5.00;;;3.10;;
5199;SDS011;2619;47.868;11.892;2023-07-31T03:39:23;5.43;;;3.77;;
5199;SDS011;2619;47.868;11.892;2023-07-31T03:41:48;8.00;;;3.50;;
5199;SDS011;2619;47.868;11.892;2023-07-31T03:44:14;6.10;;;3.30;;
5199;SDS011;2619;47.868;11.892;2023-07-31T03:46:39;6.87;;;2.90;;
5199;SDS011;2619;47.868;11.892;2023-07-31T03:49:05;4.80;;;3.17;;
5199;SDS011;2619;47.868;11.892;2023-07-31T03:51:31;7.00;;;3.20;;
5199;SDS011;2619;47.868;11.892;2023-07-31T03:53:56;6.90;;;4.03;;
5199;SDS011;2619;47.868;11.892;2023-07-31T03:56:22;9.27;;;3.10;;
5199;SDS011;2619;47.868;11.892;2023-07-31T03:58:47;6.23;;;3.50;;
5199;SDS011;2619;47.868;11.892;2023-07-31T04:01:13;9.00;;;3.80;;
5199;SDS011;2619;47.868;11.892;2023-07-31T04:03:38;4.40;;;2.90;;
5199;SDS011;2619;47.868;11.892;2023-07-31T04:06:04;6.33;;;3.57;;
5199;SDS011;2619;47.868;11.892;2023-07-31T04:08:31;5.27;;;3.17;;
5199;SDS011;2619;47.868;11.892;2023-07-31T04:10:57;9.40;;;4.13;;
5199;SDS011;2619;47.868;11.892;2023-07-31T04:13:23;6.13;;;2.80;;
5199;SDS011;2619;47.868;11.892;2023-07-31T04:15:49;4.97;;;3.80;;
5199;SDS011;2619;47.868;11.892;2023-07-31T04:18:19;5.77;;;3.53;;
5199;SDS011;2619;47.868;11.892;2023-07-31T04:20:44;6.70;;;3.63;;
5199;SDS011;2619;47.868;11.892;2023-07-31T04:23:10;6.10;;;4.07;;
5199;SDS011;2619;47.868;11.892;2023-07-31T04:25:36;5.40;;;3.80;;
5199;SDS011;2619;47.868;11.892;2023-07-31T04:28:02;4.27;;;3.67;;
5199;SDS011;2619;47.868;11.892;2023-07-31T04:30:27;9.53;;;3.80;;
5199;SDS011;2619;47.868;11.892;2023-07-31T04:32:53;5.40;;;4.20;;
5199;SDS011;2619;47.868;11.892;2023-07-31T04:35:18;6.80;;;4.00;;
5199;SDS011;2619;47.868;11.892;2023-07-31T04:37:44;7.70;;;4.07;;
5199;SDS011;2619;47.868;11.892;2023-07-31T04:40:13;4.30;;;3.53;;
5199;SDS011;2619;47.868;11.892;2023-07-31T04:42:39;5.33;;;3.23;;
5199;SDS011;2619;47.868;11.892;2023-07-31T04:45:05;5.93;;;3.27;;
5199;SDS011;2619;47.868;11.892;2023-07-31T04:47:31;5.87;;;3.73;;
5199;SDS011;2619;47.868;11.892;2023-07-31T04:49:56;5.13;;;3.60;;
5199;SDS011;2619;47.868;11.892;2023-07-31T04:52:22;17.20;;;4.70;;
5199;SDS011;2619;47.868;11.892;2023-07-31T04:54:47;6.53;;;4.10;;
5199;SDS011;2619;47.868;11.892;2023-07-31T04:57:14;7.03;;;3.60;;
5199;SDS011;2619;47.868;11.892;2023-07-31T04:59:39;6.30;;;3.30;;
5199;SDS011;2619;47.868;11.892;2023-07-31T05:02:06;4.83;;;3.33;;
5199;SDS011;2619;47.868;11.892;2023-07-31T05:04:33;4.30;;;3.17;;
5199;SDS011;2619;47.868;11.892;2023-07-31T05:06:59;5.00;;;3.30;;
5199;SDS011;2619;47.868;11.892;2023-07-31T05:09:24;5.03;;;3.50;;
5199;SDS011;2619;47.868;11.892;2023-07-31T05:11:50;6.73;;;3.63;;
5199;SDS011;2619;47.868;11.892;2023-07-31T05:14:15;4.97;;;3.20;;
5199;SDS011;2619;47.868;11.892;2023-07-31T05:16:41;4.70;;;3.33;;
5199;SDS011;2619;47.868;11.892;2023-07-31T05:19:06;3.97;;;3.00;;
5199;SDS011;2619;47.868;11.892;2023-07-31T05:21:32;4.67;;;3.50;;
5199;SDS011;2619;47.868;11.892;2023-07-31T05:23:58;3.60;;;2.53;;
5199;SDS011;2619;47.868;11.892;2023-07-31T05:26:23;5.60;;;3.13;;
5199;SDS011;2619;47.868;11.892;2023-07-31T05:28:49;4.07;;;3.00;;
5199;SDS011;2619;47.868;11.892;2023-07-31T05:31:14;4.47;;;2.97;;
5199;SDS011;2619;47.868;11.892;2023-07-31T05:33:40;4.23;;;2.80;;
5199;SDS011;2619;47.868;11.892;2023-07-31T05:36:06;3.70;;;2.67;;
5199;SDS011;2619;47.868;11.892;2023-07-31T05:38:31;5.27;;;2.30;;
5199;SDS011;2619;47.868;11.892;2023-07-31T05:40:57;3.80;;;2.50;;
5199;SDS011;2619;47.868;11.892;2023-07-31T05:43:22;4.40;;;2.90;;
5199;SDS011;2619;47.868;11.892;2023-07-31T05:45:48;4.10;;;2.60;;
5199;SDS011;2619;47.868;11.892;2023-07-31T05:48:13;5.43;;;2.47;;
5199;SDS011;2619;47.868;11.892;2023-07-31T05:50:39;6.03;;;2.80;;
5199;SDS011;2619;47.868;11.892;2023-07-31T05:53:05;2.77;;;2.10;;
5199;SDS011;2619;47.868;11.892;2023-07-31T05:55:32;4.37;;;2.23;;
5199;SDS011;2619;47.868;11.892;2023-07-31T05:57:58;5.80;;;2.53;;
5199;SDS011;2619;47.868;11.892;2023-07-31T06:00:24;4.20;;;2.90;;
5199;SDS011;2619;47.868;11.892;2023-07-31T06:02:49;5.40;;;2.30;;
5199;SDS011;2619;47.868;11.892;2023-07-31T06:05:15;5.20;;;2.67;;
5199;SDS011;2619;47.868;11.892;2023-07-31T06:07:41;4.30;;;2.40;;
5199;SDS011;2619;47.868;11.892;2023-07-31T06:10:06;4.40;;;2.60;;
5199;SDS011;2619;47.868;11.892;2023-07-31T06:12:33;5.00;;;2.13;;
5199;SDS011;2619;47.868;11.892;2023-07-31T06:14:59;5.27;;;2.67;;
5199;SDS011;2619;47.868;11.892;2023-07-31T06:17:24;6.53;;;2.53;;
5199;SDS011;2619;47.868;11.892;2023-07-31T06:19:51;3.47;;;2.20;;
5199;SDS011;2619;47.868;11.892;2023-07-31T06:22:16;5.73;;;2.37;;
5199;SDS011;2619;47.868;11.892;2023-07-31T06:24:43;6.17;;;2.60;;
5199;SDS011;2619;47.868;11.892;2023-07-31T06:27:08;3.83;;;2.70;;
5199;SDS011;2619;47.868;11.892;2023-07-31T06:29:34;3.60;;;2.10;;
5199;SDS011;2619;47.868;11.892;2023-07-31T06:32:00;3.23;;;2.13;;
5199;SDS011;2619;47.868;11.892;2023-07-31T06:34:25;4.50;;;2.70;;
5199;SDS011;2619;47.868;11.892;2023-07-31T06:36:51;4.53;;;2.33;;
5199;SDS011;2619;47.868;11.892;2023-07-31T06:39:16;4.30;;;2.40;;
5199;SDS011;2619;47.868;11.892;2023-07-31T06:41:42;5.27;;;2.50;;
5199;SDS011;2619;47.868;11.892;2023-07-31T06:44:09;4.27;;;2.50;;
5199;SDS011;2619;47.868;11.892;2023-07-31T06:46:34;5.23;;;2.50;;
5199;SDS011;2619;47.868;11.892;2023-07-31T06:49:00;4.70;;;2.57;;
5199;SDS011;2619;47.868;11.892;2023-07-31T06:51:25;8.43;;;2.80;;
5199;SDS011;2619;47.868;11.892;2023-07-31T06:53:51;4.80;;;2.23;;
5199;SDS011;2619;47.868;11.892;2023-07-31T06:56:17;5.07;;;2.50;;
5199;SDS011;2619;47.868;11.892;2023-07-31T06:58:42;4.13;;;2.40;;
5199;SDS011;2619;47.868;11.892;2023-07-31T07:01:08;5.47;;;2.33;;
5199;SDS011;2619;47.868;11.892;2023-07-31T07:03:34;5.07;;;2.47;;
5199;SDS011;2619;47.868;11.892;2023-07-31T07:05:59;4.23;;;2.30;;
5199;SDS011;2619;47.868;11.892;2023-07-31T07:08:25;3.70;;;2.27;;
5199;SDS011;2619;47.868;11.892;2023-07-31T07:10:51;5.03;;;2.50;;
5199;SDS011;2619;47.868;11.892;2023-07-31T07:13:17;4.90;;;2.07;;
5199;SDS011;2619;47.868;11.892;2023-07-31T07:15:43;5.73;;;2.23;;
5199;SDS011;2619;47.868;11.892;2023-07-31T07:18:13;3.10;;;1.83;;
5199;SDS011;2619;47.868;11.892;2023-07-31T07:20:39;4.40;;;1.87;;
5199;SDS011;2619;47.868;11.892;2023-07-31T07:23:04;4.20;;;2.13;;
5199;SDS011;2619;47.868;11.892;2023-07-31T07:25:30;2.77;;;1.70;;
5199;SDS011;2619;47.868;11.892;2023-07-31T07:27:56;7.03;;;2.23;;
5199;SDS011;2619;47.868;11.892;2023-07-31T07:30:21;5.70;;;2.03;;
5199;SDS011;2619;47.868;11.892;2023-07-31T07:32:49;4.10;;;1.60;;
5199;SDS011;2619;47.868;11.892;2023-07-31T07:35:14;2.73;;;1.63;;
5199;SDS011;2619;47.868;11.892;2023-07-31T07:37:40;3.87;;;2.00;;
5199;SDS011;2619;47.868;11.892;2023-07-31T07:40:06;2.40;;;1.50;;
5199;SDS011;2619;47.868;11.892;2023-07-31T07:42:32;3.80;;;2.00;;
5199;SDS011;2619;47.868;11.892;2023-07-31T07:44:57;4.60;;;1.93;;
5199;SDS011;2619;47.868;11.892;2023-07-31T07:47:23;5.50;;;1.70;;
5199;SDS011;2619;47.868;11.892;2023-07-31T07:49:48;3.57;;;1.80;;
5199;SDS011;2619;47.868;11.892;2023-07-31T07:52:14;4.33;;;2.23;;
5199;SDS011;2619;47.868;11.892;2023-07-31T07:54:40;3.40;;;1.97;;
5199;SDS011;2619;47.868;11.892;2023-07-31T07:57:05;6.17;;;1.90;;
5199;SDS011;2619;47.868;11.892;2023-07-31T07:59:31;2.43;;;1.60;;
5199;SDS011;2619;47.868;11.892;2023-07-31T08:01:56;4.40;;;2.47;;
5199;SDS011;2619;47.868;11.892;2023-07-31T08:04:22;3.80;;;2.40;;
5199;SDS011;2619;47.868;11.892;2023-07-31T08:06:48;3.40;;;1.87;;
5199;SDS011;2619;47.868;11.892;2023-07-31T08:09:13;3.93;;;2.03;;
5199;SDS011;2619;47.868;11.892;2023-07-31T08:11:39;3.63;;;1.93;;
5199;SDS011;2619;47.868;11.892;2023-07-31T08:14:05;5.10;;;2.03;;
5199;SDS011;2619;47.868;11.892;2023-07-31T08:16:30;2.93;;;2.07;;
5199;SDS011;2619;47.868;11.892;2023-07-31T08:18:56;3.07;;;1.87;;
5199;SDS011;2619;47.868;11.892;2023-07-31T08:21:22;6.63;;;2.20;;
5199;SDS011;2619;47.868;11.892;2023-07-31T08:23:48;2.70;;;1.90;;
5199;SDS011;2619;47.868;11.892;2023-07-31T08:26:17;3.40;;;1.97;;
5199;SDS011;2619;47.868;11.892;2023-07-31T08:28:43;4.30;;;2.10;;
5199;SDS011;2619;47.868;11.892;2023-07-31T08:31:09;2.97;;;2.07;;
5199;SDS011;2619;47.868;11.892;2023-07-31T08:33:35;3.63;;;2.33;;
5199;SDS011;2619;47.868;11.892;2023-07-31T08:36:01;3.07;;;2.03;;
5199;SDS011;2619;47.868;11.892;2023-07-31T08:38:27;3.10;;;2.10;;
5199;SDS011;2619;47.868;11.892;2023-07-31T08:40:54;4.63;;;2.40;;
5199;SDS011;2619;47.868;11.892;2023-07-31T08:43:21;3.27;;;2.40;;
5199;SDS011;2619;47.868;11.892;2023-07-31T08:45:50;5.70;;;2.13;;
5199;SDS011;2619;47.868;11.892;2023-07-31T08:48:16;4.90;;;2.40;;
5199;SDS011;2619;47.868;11.892;2023-07-31T08:50:43;2.50;;;1.60;;
5199;SDS011;2619;47.868;11.892;2023-07-31T08:53:09;7.33;;;2.30;;
5199;SDS011;2619;47.868;11.892;2023-07-31T08:55:35;3.33;;;2.30;;
5199;SDS011;2619;47.868;11.892;2023-07-31T08:58:02;3.50;;;2.10;;
5199;SDS011;2619;47.868;11.892;2023-07-31T09:00:29;3.47;;;2.40;;
5199;SDS011;2619;47.868;11.892;2023-07-31T09:02:59;4.73;;;2.07;;
5199;SDS011;2619;47.868;11.892;2023-07-31T09:05:31;4.63;;;2.33;;
5199;SDS011;2619;47.868;11.892;2023-07-31T09:07:57;5.50;;;2.30;;
5199;SDS011;2619;47.868;11.892;2023-07-31T09:10:23;4.43;;;1.80;;
5199;SDS011;2619;47.868;11.892;2023-07-31T09:12:51;3.77;;;2.10;;
5199;SDS011;2619;47.868;11.892;2023-07-31T09:15:17;3.60;;;2.13;;
5199;SDS011;2619;47.868;11.892;2023-07-31T09:17:43;3.47;;;2.40;;
5199;SDS011;2619;47.868;11.892;2023-07-31T09:20:15;3.60;;;1.83;;
5199;SDS011;2619;47.868;11.892;2023-07-31T09:22:42;5.97;;;2.50;;
5199;SDS011;2619;47.868;11.892;2023-07-31T09:27:51;4.00;;;2.13;;
5199;SDS011;2619;47.868;11.892;2023-07-31T09:30:46;3.67;;;2.20;;
5199;SDS011;2619;47.868;11.892;2023-07-31T09:33:16;4.90;;;2.10;;
5199;SDS011;2619;47.868;11.892;2023-07-31T09:35:49;3.37;;;2.13;;
5199;SDS011;2619;47.868;11.892;2023-07-31T09:38:14;4.43;;;2.63;;
5199;SDS011;2619;47.868;11.892;2023-07-31T09:40:42;3.37;;;2.23;;
5199;SDS011;2619;47.868;11.892;2023-07-31T09:45:56;5.63;;;2.47;;
5199;SDS011;2619;47.868;11.892;2023-07-31T09:48:23;3.10;;;1.90;;
5199;SDS011;2619;47.868;11.892;2023-07-31T09:50:51;3.57;;;2.60;;
5199;SDS011;2619;47.868;11.892;2023-07-31T09:53:17;3.43;;;2.23;;
5199;SDS011;2619;47.868;11.892;2023-07-31T09:55:42;5.63;;;2.53;;
5199;SDS011;2619;47.868;11.892;2023-07-31T09:58:08;4.80;;;2.00;;
5199;SDS011;2619;47.868;11.892;2023-07-31T10:00:36;4.50;;;2.63;;
5199;SDS011;2619;47.868;11.892;2023-07-31T10:03:06;4.47;;;2.63;;
5199;SDS011;2619;47.868;11.892;2023-07-31T10:08:00;3.97;;;2.23;;
5199;SDS011;2619;47.868;11.892;2023-07-31T10:10:26;4.80;;;2.50;;
5199;SDS011;2619;47.868;11.892;2023-07-31T10:12:53;3.23;;;2.20;;
5199;SDS011;2619;47.868;11.892;2023-07-31T10:15:20;4.80;;;2.67;;
5199;SDS011;2619;47.868;11.892;2023-07-31T10:17:47;4.30;;;2.40;;
5199;SDS011;2619;47.868;11.892;2023-07-31T10:20:14;4.23;;;2.07;;
5199;SDS011;2619;47.868;11.892;2023-07-31T10:22:43;3.93;;;2.27;;
5199;SDS011;2619;47.868;11.892;2023-07-31T10:25:12;4.63;;;2.17;;
5199;SDS011;2619;47.868;11.892;2023-07-31T10:27:38;3.60;;;2.40;;
5199;SDS011;2619;47.868;11.892;2023-07-31T10:30:05;4.40;;;2.70;;
5199;SDS011;2619;47.868;11.892;2023-07-31T10:32:36;4.17;;;2.70;;
5199;SDS011;2619;47.868;11.892;2023-07-31T10:35:05;4.33;;;2.10;;
5199;SDS011;2619;47.868;11.892;2023-07-31T10:37:37;5.20;;;2.90;;
5199;SDS011;2619;47.868;11.892;2023-07-31T10:40:17;3.70;;;2.23;;
5199;SDS011;2619;47.868;11.892;2023-07-31T10:42:50;5.13;;;2.77;;
5199;SDS011;2619;47.868;11.892;2023-07-31T10:45:24;3.17;;;2.10;;
5199;SDS011;2619;47.868;11.892;2023-07-31T10:48:25;3.00;;;2.00;;
5199;SDS011;2619;47.868;11.892;2023-07-31T10:53:30;4.57;;;2.30;;
5199;SDS011;2619;47.868;11.892;2023-07-31T10:56:00;2.93;;;2.17;;
5199;SDS011;2619;47.868;11.892;2023-07-31T10:58:26;3.30;;;2.50;;
5199;SDS011;2619;47.868;11.892;2023-07-31T11:00:55;3.00;;;1.93;;
5199;SDS011;2619;47.868;11.892;2023-07-31T11:03:25;2.93;;;2.40;;
5199;SDS011;2619;47.868;11.892;2023-07-31T11:05:52;2.90;;;2.13;;
5199;SDS011;2619;47.868;11.892;2023-07-31T11:10:47;4.40;;;2.27;;
5199;SDS011;2619;47.868;11.892;2023-07-31T11:13:15;4.20;;;2.43;;
5199;SDS011;2619;47.868;11.892;2023-07-31T11:15:40;4.07;;;2.23;;
5199;SDS011;2619;47.868;11.892;2023-07-31T11:18:06;4.70;;;2.80;;
5199;SDS011;2619;47.868;11.892;2023-07-31T11:20:33;5.03;;;2.10;;
5199;SDS011;2619;47.868;11.892;2023-07-31T11:23:01;3.60;;;2.40;;
5199;SDS011;2619;47.868;11.892;2023-07-31T11:25:31;6.90;;;2.50;;
5199;SDS011;2619;47.868;11.892;2023-07-31T11:27:57;2.77;;;2.10;;
5199;SDS011;2619;47.868;11.892;2023-07-31T11:30:31;4.80;;;2.50;;
5199;SDS011;2619;47.868;11.892;2023-07-31T11:32:57;2.83;;;2.03;;
5199;SDS011;2619;47.868;11.892;2023-07-31T11:35:23;5.43;;;2.33;;
5199;SDS011;2619;47.868;11.892;2023-07-31T11:37:48;4.03;;;2.63;;
5199;SDS011;2619;47.868;11.892;2023-07-31T11:40:14;2.90;;;2.33;;
5199;SDS011;2619;47.868;11.892;2023-07-31T11:42:40;3.93;;;2.10;;
5199;SDS011;2619;47.868;11.892;2023-07-31T11:45:06;3.37;;;2.37;;
5199;SDS011;2619;47.868;11.892;2023-07-31T11:47:34;4.63;;;2.63;;
5199;SDS011;2619;47.868;11.892;2023-07-31T11:50:02;2.97;;;2.07;;
5199;SDS011;2619;47.868;11.892;2023-07-31T11:52:40;4.70;;;2.43;;
5199;SDS011;2619;47.868;11.892;2023-07-31T11:55:08;4.40;;;2.10;;
5199;SDS011;2619;47.868;11.892;2023-07-31T11:57:38;3.60;;;2.13;;
5199;SDS011;2619;47.868;11.892;2023-07-31T12:00:06;4.27;;;2.30;;
5199;SDS011;2619;47.868;11.892;2023-07-31T12:02:36;4.30;;;2.00;;
5199;SDS011;2619;47.868;11.892;2023-07-31T12:05:02;5.40;;;2.20;;
5199;SDS011;2619;47.868;11.892;2023-07-31T12:07:29;3.93;;;2.40;;
5199;SDS011;2619;47.868;11.892;2023-07-31T12:10:27;3.50;;;2.43;;
5199;SDS011;2619;47.868;11.892;2023-07-31T12:15:33;3.30;;;2.37;;
5199;SDS011;2619;47.868;11.892;2023-07-31T12:17:59;5.43;;;2.00;;
5199;SDS011;2619;47.868;11.892;2023-07-31T12:20:25;4.77;;;2.60;;
5199;SDS011;2619;47.868;11.892;2023-07-31T12:22:51;3.87;;;2.17;;
5199;SDS011;2619;47.868;11.892;2023-07-31T12:25:16;3.63;;;2.10;;
5199;SDS011;2619;47.868;11.892;2023-07-31T12:27:45;4.33;;;2.43;;
5199;SDS011;2619;47.868;11.892;2023-07-31T12:30:27;3.47;;;2.13;;
5199;SDS011;2619;47.868;11.892;2023-07-31T12:33:05;2.70;;;2.00;;
5199;SDS011;2619;47.868;11.892;2023-07-31T12:35:36;3.57;;;2.00;;
5199;SDS011;2619;47.868;11.892;2023-07-31T12:38:02;4.00;;;2.40;;
5199;SDS011;2619;47.868;11.892;2023-07-31T12:40:28;4.30;;;2.30;;
5199;SDS011;2619;47.868;11.892;2023-07-31T12:42:54;6.30;;;2.30;;
5199;SDS011;2619;47.868;11.892;2023-07-31T12:45:19;2.97;;;1.97;;
5199;SDS011;2619;47.868;11.892;2023-07-31T12:47:46;5.97;;;2.57;;
5199;SDS011;2619;47.868;11.892;2023-07-31T12:50:12;5.60;;;2.83;;
5199;SDS011;2619;47.868;11.892;2023-07-31T12:52:37;3.47;;;2.60;;
5199;SDS011;2619;47.868;11.892;2023-07-31T12:55:03;5.17;;;2.50;;
5199;SDS011;2619;47.868;11.892;2023-07-31T12:57:29;3.80;;;2.40;;
5199;SDS011;2619;47.868;11.892;2023-07-31T12:59:55;3.23;;;2.00;;
5199;SDS011;2619;47.868;11.892;2023-07-31T13:02:21;4.63;;;2.53;;
5199;SDS011;2619;47.868;11.892;2023-07-31T13:04:47;4.70;;;2.40;;
5199;SDS011;2619;47.868;11.892;2023-07-31T13:07:14;3.53;;;2.30;;
5199;SDS011;2619;47.868;11.892;2023-07-31T13:09:39;3.70;;;2.40;;
5199;SDS011;2619;47.868;11.892;2023-07-31T13:12:05;3.97;;;2.13;;
5199;SDS011;2619;47.868;11.892;2023-07-31T13:14:31;5.10;;;2.00;;
5199;SDS011;2619;47.868;11.892;2023-07-31T13:16:56;3.80;;;2.13;;
5199;SDS011;2619;47.868;11.892;2023-07-31T13:19:22;5.37;;;2.67;;
5199;SDS011;2619;47.868;11.892;2023-07-31T13:21:48;6.20;;;2.43;;
5199;SDS011;2619;47.868;11.892;2023-07-31T13:24:13;6.63;;;2.20;;
5199;SDS011;2619;47.868;11.892;2023-07-31T13:26:39;3.10;;;2.50;;
5199;SDS011;2619;47.868;11.892;2023-07-31T13:29:04;4.03;;;2.53;;
5199;SDS011;2619;47.868;11.892;2023-07-31T13:31:30;4.53;;;2.60;;
5199;SDS011;2619;47.868;11.892;2023-07-31T13:33:55;4.40;;;2.23;;
5199;SDS011;2619;47.868;11.892;2023-07-31T13:36:21;3.80;;;2.70;;
5199;SDS011;2619;47.868;11.892;2023-07-31T13:38:46;3.30;;;2.20;;
5199;SDS011;2619;47.868;11.892;2023-07-31T13:41:12;4.90;;;2.33;;
5199;SDS011;2619;47.868;11.892;2023-07-31T13:43:37;4.00;;;2.50;;
5199;SDS011;2619;47.868;11.892;2023-07-31T13:46:03;7.20;;;2.63;;
5199;SDS011;2619;47.868;11.892;2023-07-31T13:48:33;2.90;;;1.90;;
5199;SDS011;2619;47.868;11.892;2023-07-31T13:50:59;3.03;;;2.37;;
5199;SDS011;2619;47.868;11.892;2023-07-31T13:53:25;4.20;;;2.80;;
5199;SDS011;2619;47.868;11.892;2023-07-31T13:55:50;4.83;;;2.60;;
5199;SDS011;2619;47.868;11.892;2023-07-31T13:58:17;3.10;;;2.00;;
5199;SDS011;2619;47.868;11.892;2023-07-31T14:00:42;4.20;;;2.30;;
5199;SDS011;2619;47.868;11.892;2023-07-31T14:03:08;4.90;;;2.87;;
5199;SDS011;2619;47.868;11.892;2023-07-31T14:05:34;4.27;;;2.50;;
5199;SDS011;2619;47.868;11.892;2023-07-31T14:08:00;8.10;;;2.40;;
5199;SDS011;2619;47.868;11.892;2023-07-31T14:10:25;3.03;;;2.27;;
5199;SDS011;2619;47.868;11.892;2023-07-31T14:12:51;4.57;;;2.40;;
5199;SDS011;2619;47.868;11.892;2023-07-31T14:15:16;4.30;;;2.00;;
5199;SDS011;2619;47.868;11.892;2023-07-31T14:17:42;4.90;;;2.70;;
5199;SDS011;2619;47.868;11.892;2023-07-31T14:20:08;4.30;;;2.50;;
5199;SDS011;2619;47.868;11.892;2023-07-31T14:22:34;3.70;;;1.97;;
5199;SDS011;2619;47.868;11.892;2023-07-31T14:25:00;4.10;;;2.33;;
5199;SDS011;2619;47.868;11.892;2023-07-31T14:27:25;4.47;;;2.60;;
5199;SDS011;2619;47.868;11.892;2023-07-31T14:29:51;3.50;;;2.17;;
5199;SDS011;2619;47.868;11.892;2023-07-31T14:32:17;3.80;;;2.40;;
5199;SDS011;2619;47.868;11.892;2023-07-31T14:34:42;5.00;;;2.30;;
5199;SDS011;2619;47.868;11.892;2023-07-31T14:37:08;3.87;;;2.70;;
5199;SDS011;2619;47.868;11.892;2023-07-31T14:39:33;3.80;;;2.37;;
5199;SDS011;2619;47.868;11.892;2023-07-31T14:41:59;6.73;;;2.07;;
5199;SDS011;2619;47.868;11.892;2023-07-31T14:44:24;7.10;;;2.50;;
5199;SDS011;2619;47.868;11.892;2023-07-31T14:46:50;4.43;;;2.83;;
5199;SDS011;2619;47.868;11.892;2023-07-31T14:49:16;3.10;;;2.10;;
5199;SDS011;2619;47.868;11.892;2023-07-31T14:51:41;5.93;;;2.03;;
5199;SDS011;2619;47.868;11.892;2023-07-31T14:54:07;2.90;;;2.23;;
5199;SDS011;2619;47.868;11.892;2023-07-31T14:56:32;3.37;;;2.40;;
5199;SDS011;2619;47.868;11.892;2023-07-31T14:58:58;3.80;;;2.23;;
5199;SDS011;2619;47.868;11.892;2023-07-31T15:01:23;3.13;;;2.20;;
5199;SDS011;2619;47.868;11.892;2023-07-31T15:03:49;4.13;;;2.03;;
5199;SDS011;2619;47.868;11.892;2023-07-31T15:06:15;3.80;;;2.07;;
5199;SDS011;2619;47.868;11.892;2023-07-31T15:08:40;4.70;;;2.37;;
5199;SDS011;2619;47.868;11.892;2023-07-31T15:11:07;4.13;;;2.40;;
5199;SDS011;2619;47.868;11.892;2023-07-31T15:13:33;2.93;;;2.03;;
5199;SDS011;2619;47.868;11.892;2023-07-31T15:15:58;3.80;;;2.40;;
5199;SDS011;2619;47.868;11.892;2023-07-31T15:18:24;4.83;;;2.40;;